イスタンブル の空港の天気 - METARとTAF

アタテュルク国際空港(イスタンブル) ( LTBA / IST ) - トルコ イスタンブル
飛行場実況気象(Metar)
観測時間06/26 01:20 EET (06/25 22:20 UTC)
風向・風速北東 5m/s
視程10km以上
天気現象
なし
気温26℃
湿度79%
気圧1017hPa
METARLTBA 252220Z 05009KT CAVOK 26/22 Q1017 NOSIG RMK RWY17L 04010KT 010V080 RWY05 05009KT RWY23 07010KT
過去の天気等 Google飛行場航空写真 Wunderground天気予報

過去48時間のMETAR

飛行場予報(TAF)
発表時間: 6/25 19:40 EET (6/25 16:40 UTC)
予報対象時間: 25日21時 EET ~ 27日3時 EET
風向・風速北北東 8m/s
視程10km以上
なし
26日0時 EET ~ 26日4時 EET に徐々に
全天の4割程度の雲 雲底高度 910m
26日9時 EET ~ 26日12時 EET に徐々に
風向・風速北北東 8m/s 瞬間風速 13m/s
26日19時 EET ~ 26日21時 EET に徐々に
風向・風速北北東 6m/s
TAF LTBA 251640Z 2518/2624 02015KT CAVOK
BECMG 2521/2601 SCT030
BECMG 2606/2609 02016G26KT
BECMG 2616/2618 02012KT